Terminal Aerodrome Forecast
Issued by NWS Greer, SC

Home | Current Version | Previous Version | Text Only | Print | Product List | Glossary On
Versions: 1 2 3 4 5 6 7 8 9 10 11 12 13 14 15 16 17 18 19 20 21 22 23 24 25 26 27 28 29 30 31 32 33 34 35 36 37 38 39 40 41 42 43 44 45 46 47 48 49 50
000
FTUS42 KGSP 230529
TAFAVL
TAF
KAVL 230529Z 2306/2406 14007KT 6SM -SHRA VCTS BKN015 OVC025CB
     FM230900 20005KT 5SM -SHRA BR BKN015
      TEMPO 2309/2313 2SM -SHRA BR OVC007
     FM231300 30005KT 2SM -SHRA BR OVC003
     FM231600 33007KT 4SM -SHRA OVC010
     FM232200 33014G22KT P6SM BKN020 PROB30 2322/2403 2SM -SHRA
      OVC007=

USA.gov is the U.S. government's official web portal to all federal, state and local government web resources and services.